createdAt,value
2022-11-09T00:00:08.916Z,77.50
2022-11-09T00:02:58.368Z,76.96
2022-11-09T00:05:56.876Z,76.59
2022-11-09T00:08:46.085Z,76.24
2022-11-09T00:11:35.383Z,76.58
2022-11-09T00:14:24.694Z,76.99
2022-11-09T00:17:15.551Z,76.25
2022-11-09T00:20:05.809Z,76.62
2022-11-09T00:22:55.077Z,76.35
2022-11-09T00:25:44.356Z,76.03
2022-11-09T00:28:33.942Z,76.74
2022-11-09T00:31:25.369Z,76.80
2022-11-09T00:34:16.184Z,76.39
2022-11-09T00:37:05.539Z,76.84
2022-11-09T00:39:54.796Z,76.56
2022-11-09T00:42:44.018Z,76.72
2022-11-09T00:45:33.343Z,76.78
2022-11-09T00:48:22.825Z,76.86
2022-11-09T00:51:14.464Z,76.64
2022-11-09T00:54:03.893Z,76.32
2022-11-09T00:56:53.551Z,76.01
2022-11-09T00:59:42.863Z,76.30
2022-11-09T01:02:32.374Z,76.07
2022-11-09T01:05:22.080Z,76.40
2022-11-09T01:08:13.329Z,76.19
2022-11-09T01:11:07.386Z,75.73
2022-11-09T01:13:57.271Z,75.37
2022-11-09T01:16:46.620Z,75.43
2022-11-09T01:19:35.964Z,75.18
2022-11-09T01:22:25.275Z,74.99
2022-11-09T01:25:18.951Z,75.34
2022-11-09T01:28:09.665Z,75.31
2022-11-09T01:31:03.529Z,75.18
2022-11-09T01:33:54.449Z,75.22
2022-11-09T01:36:43.685Z,75.16
2022-11-09T01:39:32.975Z,75.00
2022-11-09T01:42:27.631Z,75.31
2022-11-09T01:45:29.153Z,75.63
2022-11-09T01:48:24.558Z,75.24
2022-11-09T01:51:28.853Z,75.41
2022-11-09T01:54:24.774Z,75.49
2022-11-09T01:57:23.195Z,75.33
2022-11-09T02:00:18.172Z,75.73
2022-11-09T02:03:14.153Z,75.31
2022-11-09T02:06:07.959Z,75.18
2022-11-09T02:09:06.290Z,75.44
2022-11-09T02:11:55.706Z,75.58
2022-11-09T02:14:47.161Z,75.85
2022-11-09T02:17:38.897Z,75.31
2022-11-09T02:20:30.419Z,75.94
2022-11-09T02:23:21.856Z,76.45
2022-11-09T02:26:19.457Z,77.22
2022-11-09T02:29:12.519Z,76.60
2022-11-09T02:32:06.194Z,76.96
2022-11-09T02:34:55.521Z,77.81
2022-11-09T02:37:49.804Z,77.42
2022-11-09T02:40:44.236Z,77.18
2022-11-09T02:43:33.720Z,78.02
2022-11-09T02:46:26.683Z,78.15
2022-11-09T02:49:16.157Z,77.61
2022-11-09T02:52:06.192Z,77.81
2022-11-09T02:54:56.948Z,78.22
2022-11-09T02:57:46.516Z,77.90
2022-11-09T03:00:38.038Z,77.77
2022-11-09T03:03:27.580Z,77.72
2022-11-09T03:06:17.386Z,77.98
2022-11-09T03:09:11.044Z,77.53
2022-11-09T03:12:22.648Z,78.10
2022-11-09T03:15:12.993Z,77.97
2022-11-09T03:18:06.720Z,77.94
2022-11-09T03:20:56.333Z,77.88
2022-11-09T03:23:45.845Z,78.07
2022-11-09T03:26:35.612Z,78.17
2022-11-09T03:29:27.631Z,78.23
2022-11-09T03:32:17.937Z,77.93
2022-11-09T03:35:09.137Z,78.35
2022-11-09T03:37:58.617Z,77.88
2022-11-09T03:40:48.531Z,78.25
2022-11-09T03:43:37.830Z,77.77
2022-11-09T03:46:28.593Z,77.49
2022-11-09T03:49:17.949Z,78.05
2022-11-09T03:52:07.360Z,77.65
2022-11-09T03:54:56.847Z,77.49
2022-11-09T03:57:47.432Z,77.64
2022-11-09T04:00:37.073Z,78.11
2022-11-09T04:03:27.853Z,77.67
2022-11-09T04:06:17.510Z,77.53
2022-11-09T04:09:06.780Z,77.11
2022-11-09T04:11:56.079Z,77.81
2022-11-09T04:14:45.427Z,77.40
2022-11-09T04:17:34.716Z,77.53
2022-11-09T04:20:25.909Z,77.81
2022-11-09T04:23:15.605Z,77.96
2022-11-09T04:26:04.912Z,77.72
2022-11-09T04:28:54.289Z,77.49
2022-11-09T04:31:43.573Z,77.59
2022-11-09T04:34:32.918Z,77.38
2022-11-09T04:37:24.891Z,77.10
2022-11-09T04:40:14.721Z,77.26
2022-11-09T04:43:06.862Z,77.15
2022-11-09T04:45:56.315Z,77.97
2022-11-09T04:48:45.610Z,78.08
2022-11-09T04:51:35.000Z,77.67
2022-11-09T04:54:25.634Z,77.38
2022-11-09T04:57:14.889Z,76.95
2022-11-09T05:00:05.608Z,77.02
2022-11-09T05:02:54.994Z,76.50
2022-11-09T05:05:48.319Z,75.64
2022-11-09T05:08:38.076Z,75.90
2022-11-09T05:11:29.020Z,74.98
2022-11-09T05:14:18.434Z,74.48
2022-11-09T05:17:08.963Z,73.52
2022-11-09T05:19:58.210Z,72.35
2022-11-09T05:23:05.128Z,73.16
2022-11-09T05:25:54.330Z,72.80
2022-11-09T05:28:45.130Z,72.15
2022-11-09T05:31:35.159Z,71.90
2022-11-09T05:34:24.696Z,71.78
2022-11-09T05:37:14.181Z,71.60
2022-11-09T05:40:03.597Z,72.15
2022-11-09T05:42:52.932Z,72.78
2022-11-09T05:45:44.444Z,74.21
2022-11-09T05:48:34.705Z,74.71
2022-11-09T05:51:24.012Z,74.73
2022-11-09T05:54:13.707Z,74.90
2022-11-09T05:57:02.993Z,75.51
2022-11-09T05:59:52.180Z,76.72
2022-11-09T06:02:42.936Z,77.45
2022-11-09T06:05:33.731Z,77.04
2022-11-09T06:08:22.984Z,77.83
2022-11-09T06:11:21.523Z,78.36
2022-11-09T06:14:12.774Z,78.59
2022-11-09T06:17:02.138Z,78.67
2022-11-09T06:19:52.957Z,77.58
2022-11-09T06:22:42.566Z,77.78
2022-11-09T06:25:33.231Z,77.08
2022-11-09T06:28:22.753Z,76.86
2022-11-09T06:31:16.567Z,76.66
2022-11-09T06:34:05.825Z,76.88
2022-11-09T06:36:56.697Z,76.84
2022-11-09T06:39:47.501Z,76.71
2022-11-09T06:42:37.431Z,76.34
2022-11-09T06:45:28.174Z,76.42
2022-11-09T06:48:17.602Z,77.06
2022-11-09T06:51:08.522Z,76.78
2022-11-09T06:53:59.230Z,77.63
2022-11-09T06:56:48.479Z,77.85
2022-11-09T06:59:37.817Z,77.71
2022-11-09T07:02:27.333Z,77.05
2022-11-09T07:05:17.295Z,77.19
2022-11-09T07:08:07.408Z,77.22
2022-11-09T07:11:03.553Z,76.63
2022-11-09T07:13:57.266Z,77.12
2022-11-09T07:16:46.970Z,76.99
2022-11-09T07:19:36.463Z,77.26
2022-11-09T07:22:25.878Z,76.83
2022-11-09T07:25:15.138Z,77.45
2022-11-09T07:28:07.723Z,77.43
2022-11-09T07:30:58.699Z,77.43
2022-11-09T07:33:48.069Z,77.13
2022-11-09T07:36:38.193Z,77.32
2022-11-09T07:39:27.559Z,77.14
2022-11-09T07:42:16.784Z,77.76
2022-11-09T07:45:09.061Z,77.20
2022-11-09T07:48:00.607Z,77.22
2022-11-09T07:50:50.213Z,77.32
2022-11-09T07:53:40.360Z,76.81
2022-11-09T07:56:29.739Z,76.41
2022-11-09T07:59:19.165Z,75.14
2022-11-09T08:02:11.179Z,74.97
2022-11-09T08:05:00.548Z,73.90
2022-11-09T08:07:49.881Z,74.14
2022-11-09T08:10:40.237Z,74.32
2022-11-09T08:13:29.632Z,74.29
2022-11-09T08:16:19.275Z,74.46
2022-11-09T08:19:10.787Z,74.78
2022-11-09T08:22:01.988Z,75.39
2022-11-09T08:24:51.517Z,75.24
2022-11-09T08:27:41.766Z,74.99
2022-11-09T08:30:31.563Z,75.13
2022-11-09T08:33:20.960Z,74.66
2022-11-09T08:36:15.062Z,74.56
2022-11-09T08:39:04.763Z,76.40
2022-11-09T08:41:54.386Z,76.55
2022-11-09T08:44:43.981Z,78.08
2022-11-09T08:47:33.424Z,78.50
2022-11-09T08:50:24.200Z,78.78
2022-11-09T08:53:14.809Z,78.90
2022-11-09T08:56:06.537Z,80.50
2022-11-09T08:58:55.824Z,80.54
2022-11-09T09:01:45.165Z,80.14
2022-11-09T09:04:34.791Z,80.68
2022-11-09T09:07:24.091Z,81.17
2022-11-09T09:10:14.838Z,80.79
2022-11-09T09:13:05.382Z,81.25
2022-11-09T09:15:55.239Z,81.05
2022-11-09T09:18:44.813Z,80.91
2022-11-09T09:21:34.142Z,80.92
2022-11-09T09:24:23.595Z,81.28
2022-11-09T09:27:14.708Z,81.61
2022-11-09T09:30:04.470Z,82.12
2022-11-09T09:32:54.347Z,81.56
2022-11-09T09:35:43.585Z,81.67
2022-11-09T09:38:32.880Z,82.51
2022-11-09T09:41:37.259Z,82.36
2022-11-09T09:44:35.806Z,82.87
2022-11-09T09:47:35.506Z,82.82
2022-11-09T09:50:29.350Z,82.73
2022-11-09T09:53:27.625Z,82.75
2022-11-09T09:56:23.105Z,82.27
2022-11-09T09:59:24.533Z,82.15
2022-11-09T10:02:25.076Z,81.73
2022-11-09T10:05:18.183Z,81.64
2022-11-09T10:08:10.580Z,81.40
2022-11-09T10:11:16.503Z,81.51
2022-11-09T10:14:56.902Z,80.86
2022-11-09T10:18:05.245Z,80.67
2022-11-09T10:21:33.150Z,80.83
2022-11-09T10:24:48.576Z,80.77
2022-11-09T10:27:55.709Z,80.74
2022-11-09T10:30:45.775Z,80.26
2022-11-09T10:33:37.173Z,80.31
2022-11-09T10:36:34.914Z,80.42
2022-11-09T10:39:27.761Z,80.27
2022-11-09T10:42:35.773Z,80.46
2022-11-09T10:45:45.796Z,79.75
2022-11-09T10:48:55.983Z,80.40
2022-11-09T10:52:04.267Z,79.68
2022-11-09T10:55:28.203Z,79.91
2022-11-09T10:58:39.300Z,79.92
2022-11-09T11:01:47.578Z,79.99
2022-11-09T11:05:36.646Z,79.89
2022-11-09T11:08:47.820Z,77.97
2022-11-09T11:12:17.114Z,72.98
2022-11-09T11:15:26.789Z,73.01
2022-11-09T11:18:37.538Z,69.27
2022-11-09T11:21:47.041Z,67.41
2022-11-09T11:24:58.330Z,62.43
2022-11-09T11:28:23.134Z,61.04
2022-11-09T11:31:31.478Z,59.81
2022-11-09T11:34:58.973Z,56.62
2022-11-09T11:38:23.923Z,52.54
2022-11-09T11:41:59.879Z,51.49
2022-11-09T11:45:41.448Z,51.65
2022-11-09T11:49:36.251Z,51.26
2022-11-09T11:53:03.591Z,50.95
2022-11-09T11:56:34.800Z,51.13
2022-11-09T12:00:10.191Z,50.38
2022-11-09T12:03:52.520Z,50.03
2022-11-09T12:07:21.683Z,50.16
2022-11-09T12:10:47.601Z,50.29
2022-11-09T12:14:12.752Z,51.18
2022-11-09T12:17:32.999Z,51.79
2022-11-09T12:20:54.810Z,52.73
2022-11-09T12:24:17.095Z,53.17
2022-11-09T12:27:54.170Z,54.99
2022-11-09T12:31:15.036Z,55.95
2022-11-09T12:34:30.049Z,56.74
2022-11-09T12:37:45.920Z,56.39
2022-11-09T12:41:02.268Z,56.92
2022-11-09T12:44:17.721Z,56.02
2022-11-09T12:47:33.932Z,56.31
2022-11-09T12:50:42.967Z,56.09
2022-11-09T12:53:50.954Z,56.32
2022-11-09T12:57:02.653Z,56.60
2022-11-09T13:00:51.868Z,56.08
2022-11-09T13:04:05.027Z,56.25
2022-11-09T13:07:50.682Z,55.25
2022-11-09T13:11:20.400Z,55.22
2022-11-09T13:14:39.803Z,54.83
2022-11-09T13:18:02.321Z,54.70
2022-11-09T13:21:45.962Z,54.80
2022-11-09T13:24:59.731Z,55.82
2022-11-09T13:28:46.081Z,57.29
2022-11-09T13:32:27.654Z,57.71
2022-11-09T13:36:13.956Z,58.48
2022-11-09T13:39:34.200Z,58.87
2022-11-09T13:42:42.201Z,59.45
2022-11-09T13:45:54.046Z,59.80
2022-11-09T13:49:01.753Z,60.36
2022-11-09T13:52:53.544Z,60.43
2022-11-09T13:56:16.981Z,61.03
2022-11-09T13:59:30.150Z,60.76
2022-11-09T14:02:38.300Z,61.46
2022-11-09T14:05:50.184Z,61.39
2022-11-09T14:08:59.933Z,61.17
2022-11-09T14:12:27.862Z,61.38
2022-11-09T14:15:48.687Z,61.14
2022-11-09T14:19:12.672Z,61.17
2022-11-09T14:22:21.425Z,61.40
2022-11-09T14:25:35.771Z,61.79
2022-11-09T14:28:44.724Z,62.25
2022-11-09T14:31:52.845Z,62.85
2022-11-09T14:35:22.384Z,63.69
2022-11-09T14:38:34.882Z,63.84
2022-11-09T14:41:46.123Z,64.29
2022-11-09T14:44:55.646Z,64.22
2022-11-09T14:48:04.323Z,64.28
2022-11-09T14:51:14.775Z,64.23
2022-11-09T14:54:28.264Z,63.96
2022-11-09T14:57:38.145Z,64.33
2022-11-09T15:01:06.683Z,64.34
2022-11-09T15:04:20.243Z,63.98
2022-11-09T15:07:32.037Z,62.86
2022-11-09T15:10:40.107Z,62.57
2022-11-09T15:13:48.514Z,62.46
2022-11-09T15:17:07.960Z,62.79
2022-11-09T15:20:31.699Z,63.24
2022-11-09T15:23:42.273Z,63.32
2022-11-09T15:26:52.877Z,63.25
2022-11-09T15:30:00.823Z,63.32
2022-11-09T15:33:25.631Z,63.95
2022-11-09T15:36:36.677Z,64.25
2022-11-09T15:39:44.325Z,63.92
2022-11-09T15:42:52.596Z,63.85
2022-11-09T15:46:02.038Z,64.11
2022-11-09T15:49:19.539Z,64.39
2022-11-09T15:52:27.416Z,64.21
2022-11-09T15:55:35.594Z,64.75
2022-11-09T15:58:43.487Z,64.63
2022-11-09T16:01:51.611Z,64.50
2022-11-09T16:05:02.477Z,64.50
2022-11-09T16:08:10.031Z,64.83
2022-11-09T16:11:18.609Z,65.13
2022-11-09T16:14:26.793Z,64.79
2022-11-09T16:17:34.338Z,65.42
2022-11-09T16:20:43.608Z,65.65
2022-11-09T16:23:57.125Z,65.20
2022-11-09T16:27:12.850Z,65.22
2022-11-09T16:30:35.153Z,65.67
2022-11-09T16:33:42.970Z,65.72
2022-11-09T16:36:56.803Z,65.91
2022-11-09T16:40:12.508Z,66.00
2022-11-09T16:43:20.529Z,66.18
2022-11-09T16:46:30.817Z,66.76
2022-11-09T16:49:38.825Z,66.62
2022-11-09T16:52:47.900Z,66.70
2022-11-09T16:55:55.855Z,66.65
2022-11-09T16:59:03.908Z,66.91
2022-11-09T17:02:11.504Z,66.73
2022-11-09T17:05:19.774Z,66.61
2022-11-09T17:08:28.911Z,67.27
2022-11-09T17:11:37.453Z,67.16
2022-11-09T17:14:44.978Z,66.86
2022-11-09T17:17:52.565Z,66.84
2022-11-09T17:21:00.364Z,66.91
2022-11-09T17:24:10.128Z,67.22
2022-11-09T17:27:18.297Z,67.91
2022-11-09T17:30:26.380Z,67.70
2022-11-09T17:33:34.153Z,67.77
2022-11-09T17:37:03.014Z,67.99
2022-11-09T17:40:12.501Z,68.40
2022-11-09T17:43:20.306Z,68.43
2022-11-09T17:46:28.544Z,68.20
2022-11-09T17:49:36.800Z,68.69
2022-11-09T17:52:44.503Z,68.94
2022-11-09T17:55:53.953Z,69.17
2022-11-09T17:59:02.132Z,68.81
2022-11-09T18:02:13.013Z,69.48
2022-11-09T18:05:21.013Z,69.71
2022-11-09T18:08:29.156Z,69.50
2022-11-09T18:11:38.047Z,70.05
2022-11-09T18:14:45.905Z,70.47
2022-11-09T18:17:53.743Z,71.06
2022-11-09T18:21:08.106Z,70.70
2022-11-09T18:24:16.420Z,70.56
2022-11-09T18:27:30.082Z,71.05
2022-11-09T18:30:41.799Z,70.43
2022-11-09T18:33:51.494Z,70.72
2022-11-09T18:36:59.270Z,71.06
2022-11-09T18:40:08.541Z,71.21
2022-11-09T18:43:17.660Z,71.03
2022-11-09T18:46:30.161Z,71.43
2022-11-09T18:49:38.608Z,71.63
2022-11-09T18:52:46.286Z,71.95
2022-11-09T18:56:04.711Z,72.50
2022-11-09T18:59:15.836Z,72.73
2022-11-09T19:02:23.689Z,73.53
2022-11-09T19:05:31.511Z,73.44
2022-11-09T19:08:57.254Z,73.29
2022-11-09T19:12:08.547Z,73.29
2022-11-09T19:15:17.746Z,73.75
2022-11-09T19:18:25.997Z,73.81
2022-11-09T19:21:40.156Z,73.94
2022-11-09T19:24:48.167Z,74.22
2022-11-09T19:27:56.149Z,75.36
2022-11-09T19:31:05.544Z,75.50
2022-11-09T19:34:15.498Z,75.10
2022-11-09T19:37:23.167Z,75.74
2022-11-09T19:40:35.503Z,75.51
2022-11-09T19:43:49.474Z,75.83
2022-11-09T19:46:59.470Z,76.21
2022-11-09T19:50:09.197Z,75.96
2022-11-09T19:53:17.901Z,76.17
2022-11-09T19:56:29.577Z,76.16
2022-11-09T19:59:37.213Z,76.47
2022-11-09T20:02:47.686Z,77.24
2022-11-09T20:05:55.861Z,77.36
2022-11-09T20:09:03.807Z,77.35
2022-11-09T20:12:32.812Z,77.61
2022-11-09T20:15:40.942Z,77.55
2022-11-09T20:18:50.283Z,77.85
2022-11-09T20:21:58.268Z,77.49
2022-11-09T20:25:07.051Z,77.54
2022-11-09T20:28:14.943Z,77.34
2022-11-09T20:31:23.984Z,77.09
2022-11-09T20:34:33.471Z,77.69
2022-11-09T20:37:41.087Z,77.92
2022-11-09T20:40:55.892Z,78.27
2022-11-09T20:44:04.093Z,78.08
2022-11-09T20:47:12.301Z,78.54
2022-11-09T20:50:21.827Z,79.08
2022-11-09T20:53:29.683Z,80.02
2022-11-09T20:56:38.784Z,80.21
2022-11-09T20:59:46.657Z,80.08
2022-11-09T21:02:55.004Z,80.03
2022-11-09T21:06:10.974Z,80.67
2022-11-09T21:09:19.013Z,80.05
2022-11-09T21:12:27.594Z,80.12
2022-11-09T21:15:35.400Z,81.26
2022-11-09T21:18:44.043Z,81.47
2022-11-09T21:21:53.135Z,81.37
2022-11-09T21:25:18.869Z,81.38
2022-11-09T21:28:45.187Z,80.58
2022-11-09T21:31:53.561Z,81.49
2022-11-09T21:35:01.491Z,81.59
2022-11-09T21:38:10.302Z,81.72
2022-11-09T21:41:35.852Z,81.86
2022-11-09T21:44:43.768Z,81.46
2022-11-09T21:47:52.402Z,81.50
2022-11-09T21:51:00.904Z,82.15
2022-11-09T21:54:10.942Z,81.72
2022-11-09T21:57:19.202Z,82.20
2022-11-09T22:00:27.876Z,82.49
2022-11-09T22:03:36.725Z,81.87
2022-11-09T22:06:44.768Z,82.59
2022-11-09T22:10:10.990Z,82.85
2022-11-09T22:13:36.740Z,82.51
2022-11-09T22:16:45.001Z,82.77
2022-11-09T22:20:10.721Z,83.29
2022-11-09T22:23:18.977Z,83.36
2022-11-09T22:26:29.764Z,83.26
2022-11-09T22:29:37.888Z,82.53
2022-11-09T22:32:45.851Z,82.67
2022-11-09T22:35:57.358Z,82.33
2022-11-09T22:39:05.342Z,82.42
2022-11-09T22:42:14.817Z,82.13
2022-11-09T22:45:22.626Z,81.71
2022-11-09T22:48:33.070Z,81.59
2022-11-09T22:51:41.679Z,81.11
2022-11-09T22:54:49.411Z,80.75
2022-11-09T22:57:58.942Z,80.67
2022-11-09T23:01:11.413Z,80.98
2022-11-09T23:04:19.041Z,81.04
2022-11-09T23:07:26.951Z,80.75
2022-11-09T23:10:34.894Z,81.36
2022-11-09T23:13:44.729Z,81.36
2022-11-09T23:16:52.760Z,81.27
2022-11-09T23:19:59.243Z,81.06
2022-11-09T23:23:07.285Z,80.57
2022-11-09T23:26:15.471Z,80.80
2022-11-09T23:29:24.607Z,80.44
2022-11-09T23:32:33.131Z,80.71
2022-11-09T23:35:41.408Z,80.65
2022-11-09T23:38:50.514Z,80.31
2022-11-09T23:41:58.717Z,79.91
2022-11-09T23:45:09.447Z,79.57
2022-11-09T23:48:19.392Z,79.04
2022-11-09T23:51:27.234Z,78.97
2022-11-09T23:54:35.301Z,78.25
2022-11-09T23:57:43.473Z,78.19
